Wetterdaten: Woche 13.06.11 - 19.06.11 (KW24)
Datum Zeit Temperatur Luftfeuchte Luftdruck Niederschlag Windrichtung Sonnenschein Solar Wind
13.06.2011 00:00 13,4 C 83 % 1015,1 hPa 0,0 l/m N 0,00 h 0 W/m 0,0 km/h (0 Bft)
13.06.2011 01:00 13,0 C 85 % 1015,0 hPa 0,0 l/m N 0,00 h 0 W/m 0,0 km/h (0 Bft)
13.06.2011 02:00 12,2 C 89 % 1014,7 hPa 0,0 l/m N 0,00 h 0 W/m 0,0 km/h (0 Bft)
13.06.2011 03:00 11,8 C 90 % 1014,8 hPa 0,0 l/m N 0,00 h 0 W/m 0,0 km/h (0 Bft)
13.06.2011 04:00 11,6 C 92 % 1014,7 hPa 0,0 l/m N 0,00 h 0 W/m 0,9 km/h (0 Bft)
13.06.2011 05:00 12,1 C 93 % 1015,0 hPa 0,4 l/m S-SW 0,00 h 6 W/m 4,8 km/h (1 Bft)
13.06.2011 06:00 12,1 C 93 % 1015,5 hPa 1,2 l/m W-SW 0,00 h 12 W/m 11,0 km/h (2 Bft)
13.06.2011 07:00 12,1 C 95 % 1015,8 hPa 0,6 l/m W-SW 0,00 h 29 W/m 5,6 km/h (1 Bft)
13.06.2011 08:00 12,3 C 96 % 1016,0 hPa 0,4 l/m SW 0,00 h 58 W/m 5,5 km/h (1 Bft)
13.06.2011 09:00 12,9 C 97 % 1016,3 hPa 0,4 l/m SW 0,00 h 103 W/m 3,6 km/h (1 Bft)
13.06.2011 10:00 14,2 C 95 % 1016,2 hPa 0,0 l/m SW 0,00 h 214 W/m 10,7 km/h (2 Bft)
13.06.2011 11:00 15,1 C 90 % 1016,2 hPa 0,0 l/m W-SW 0,00 h 281 W/m 15,7 km/h (3 Bft)
13.06.2011 12:00 15,7 C 82 % 1016,3 hPa 0,0 l/m W-SW 0,00 h 315 W/m 14,5 km/h (3 Bft)
13.06.2011 13:00 16,7 C 71 % 1016,1 hPa 0,0 l/m W-SW 0,42 h 554 W/m 14,8 km/h (3 Bft)
13.06.2011 14:00 18,0 C 66 % 1015,7 hPa 0,0 l/m SW 0,75 h 540 W/m 17,0 km/h (3 Bft)
13.06.2011 15:00 18,2 C 66 % 1015,4 hPa 0,0 l/m SW 0,17 h 295 W/m 13,4 km/h (3 Bft)
13.06.2011 16:00 17,0 C 75 % 1015,3 hPa 1,0 l/m SW 0,00 h 77 W/m 13,8 km/h (3 Bft)
13.06.2011 17:00 14,7 C 92 % 1015,7 hPa 0,6 l/m N-NW 0,00 h 138 W/m 11,4 km/h (2 Bft)
13.06.2011 18:00 14,9 C 90 % 1015,7 hPa 0,0 l/m N 0,08 h 97 W/m 2,0 km/h (1 Bft)
13.06.2011 19:00 15,3 C 91 % 1016,0 hPa 0,0 l/m N 0,08 h 70 W/m 3,9 km/h (1 Bft)
13.06.2011 20:00 14,9 C 92 % 1016,4 hPa 0,0 l/m NW 0,00 h 34 W/m 3,7 km/h (1 Bft)
13.06.2011 21:00 14,1 C 94 % 1016,6 hPa 0,0 l/m N 0,08 h 8 W/m 0,3 km/h (0 Bft)
13.06.2011 22:00 13,4 C 96 % 1017,2 hPa 0,0 l/m N 0,00 h 0 W/m 0,0 km/h (0 Bft)
13.06.2011 23:00 13,4 C 96 % 1017,3 hPa 0,0 l/m N 0,00 h 0 W/m 1,1 km/h (0 Bft)
14.06.2011 00:00 12,9 C 97 % 1017,2 hPa 0,0 l/m N 0,00 h 0 W/m 0,9 km/h (0 Bft)
14.06.2011 01:00 12,1 C 98 % 1017,2 hPa 0,0 l/m N 0,00 h 0 W/m 0,0 km/h (0 Bft)
14.06.2011 02:00 11,8 C 98 % 1017,1 hPa 0,0 l/m N 0,00 h 0 W/m 0,0 km/h (0 Bft)
14.06.2011 03:00 11,6 C 99 % 1017,3 hPa 0,0 l/m NW 0,00 h 0 W/m 2,0 km/h (1 Bft)
14.06.2011 04:00 11,7 C 99 % 1017,3 hPa 0,0 l/m N 0,00 h 0 W/m 0,1 km/h (0 Bft)
14.06.2011 05:00 11,7 C 99 % 1017,4 hPa 0,0 l/m N 0,00 h 7 W/m 0,0 km/h (0 Bft)
14.06.2011 06:00 11,9 C 99 % 1017,6 hPa 0,0 l/m N 0,00 h 43 W/m 0,5 km/h (0 Bft)
14.06.2011 07:00 13,0 C 99 % 1017,6 hPa 0,0 l/m NW 0,00 h 103 W/m 2,3 km/h (1 Bft)
14.06.2011 08:00 14,7 C 96 % 1017,9 hPa 0,0 l/m SW 0,00 h 114 W/m 5,6 km/h (1 Bft)
14.06.2011 09:00 16,1 C 91 % 1018,0 hPa 0,0 l/m SW 0,00 h 201 W/m 4,3 km/h (1 Bft)
14.06.2011 10:00 17,9 C 80 % 1017,9 hPa 0,0 l/m SW 0,33 h 431 W/m 6,1 km/h (2 Bft)
14.06.2011 11:00 19,6 C 73 % 1017,8 hPa 0,0 l/m O 0,58 h 541 W/m 6,7 km/h (2 Bft)
14.06.2011 12:00 19,8 C 72 % 1017,5 hPa 0,0 l/m SW 0,17 h 373 W/m 8,5 km/h (2 Bft)
14.06.2011 13:00 20,3 C 69 % 1017,2 hPa 0,0 l/m SW 0,08 h 351 W/m 7,2 km/h (2 Bft)
14.06.2011 14:00 20,4 C 68 % 1016,7 hPa 0,0 l/m W-SW 0,00 h 247 W/m 7,8 km/h (2 Bft)
14.06.2011 15:00 19,0 C 76 % 1016,6 hPa 0,0 l/m W-SW 0,00 h 219 W/m 7,0 km/h (2 Bft)
14.06.2011 16:00 20,7 C 65 % 1016,4 hPa 0,0 l/m O-NO 0,17 h 261 W/m 6,8 km/h (2 Bft)
14.06.2011 17:00 18,1 C 82 % 1016,7 hPa 0,8 l/m W-NW 0,00 h 120 W/m 9,1 km/h (2 Bft)
14.06.2011 18:00 18,3 C 86 % 1016,5 hPa 0,0 l/m N 0,00 h 138 W/m 1,9 km/h (1 Bft)
14.06.2011 19:00 18,1 C 88 % 1016,6 hPa 0,0 l/m N 0,00 h 54 W/m 1,9 km/h (1 Bft)
14.06.2011 20:00 17,2 C 91 % 1017,1 hPa 0,2 l/m N 0,00 h 13 W/m 2,9 km/h (1 Bft)
14.06.2011 21:00 16,2 C 95 % 1017,4 hPa 0,4 l/m N 0,00 h 7 W/m 0,5 km/h (0 Bft)
14.06.2011 22:00 15,1 C 96 % 1017,6 hPa 0,0 l/m N 0,00 h 0 W/m 0,9 km/h (0 Bft)
14.06.2011 23:00 14,8 C 97 % 1017,7 hPa 0,0 l/m N 0,00 h 0 W/m 1,1 km/h (0 Bft)
15.06.2011 00:00 14,8 C 98 % 1017,6 hPa 0,0 l/m N 0,00 h 0 W/m 0,1 km/h (0 Bft)
15.06.2011 01:00 14,7 C 98 % 1017,5 hPa 0,0 l/m W-NW 0,00 h 0 W/m 1,9 km/h (1 Bft)
15.06.2011 02:00 14,6 C 98 % 1017,3 hPa 0,0 l/m N 0,00 h 0 W/m 0,7 km/h (0 Bft)
15.06.2011 03:00 13,8 C 98 % 1017,1 hPa 0,0 l/m N 0,00 h 0 W/m 0,1 km/h (0 Bft)
15.06.2011 04:00 13,4 C 99 % 1016,8 hPa 0,0 l/m N 0,00 h 0 W/m 0,0 km/h (0 Bft)
15.06.2011 05:00 12,9 C 99 % 1016,8 hPa 0,0 l/m N 0,00 h 10 W/m 0,0 km/h (0 Bft)
15.06.2011 06:00 12,5 C 99 % 1017,2 hPa 0,0 l/m N 0,00 h 43 W/m 0,3 km/h (0 Bft)
15.06.2011 07:00 14,0 C 100 % 1017,3 hPa 0,0 l/m N 0,92 h 235 W/m 0,8 km/h (0 Bft)
15.06.2011 08:00 16,4 C 93 % 1017,3 hPa 0,0 l/m W-NW 1,00 h 409 W/m 2,4 km/h (1 Bft)
15.06.2011 09:00 19,0 C 82 % 1017,3 hPa 0,0 l/m W-NW 1,00 h 574 W/m 4,3 km/h (1 Bft)
15.06.2011 10:00 20,6 C 76 % 1016,9 hPa 0,0 l/m O-NO 0,83 h 653 W/m 7,4 km/h (2 Bft)
15.06.2011 11:00 21,5 C 68 % 1016,7 hPa 0,0 l/m NW 0,58 h 583 W/m 7,6 km/h (2 Bft)
15.06.2011 12:00 22,8 C 59 % 1016,4 hPa 0,0 l/m W 0,92 h 867 W/m 8,8 km/h (2 Bft)
15.06.2011 13:00 23,7 C 58 % 1015,8 hPa 0,0 l/m W 0,58 h 710 W/m 8,0 km/h (2 Bft)
15.06.2011 14:00 24,2 C 55 % 1015,3 hPa 0,0 l/m W-SW 0,67 h 690 W/m 8,2 km/h (2 Bft)
15.06.2011 15:00 25,1 C 51 % 1014,7 hPa 0,0 l/m S-SW 0,50 h 569 W/m 11,7 km/h (2 Bft)
15.06.2011 16:00 24,1 C 56 % 1014,6 hPa 0,0 l/m N-NO 0,50 h 527 W/m 15,6 km/h (3 Bft)
15.06.2011 17:00 24,5 C 54 % 1014,4 hPa 0,0 l/m N 1,00 h 534 W/m 13,4 km/h (3 Bft)
15.06.2011 18:00 24,6 C 51 % 1014,1 hPa 0,0 l/m N-NO 1,00 h 404 W/m 9,3 km/h (2 Bft)
15.06.2011 19:00 23,6 C 55 % 1014,1 hPa 0,0 l/m N 0,58 h 140 W/m 5,6 km/h (1 Bft)
15.06.2011 20:00 21,7 C 66 % 1014,1 hPa 0,0 l/m NO 0,00 h 16 W/m 5,6 km/h (1 Bft)
15.06.2011 21:00 20,0 C 74 % 1014,5 hPa 0,0 l/m N 0,00 h 5 W/m 7,1 km/h (2 Bft)
15.06.2011 22:00 18,2 C 83 % 1014,8 hPa 0,0 l/m N 0,00 h 0 W/m 0,9 km/h (0 Bft)
15.06.2011 23:00 17,3 C 87 % 1014,7 hPa 0,0 l/m N 0,00 h 0 W/m 1,7 km/h (1 Bft)
16.06.2011 00:00 16,9 C 88 % 1014,7 hPa 0,0 l/m N 0,00 h 0 W/m 0,4 km/h (0 Bft)
16.06.2011 01:00 16,7 C 90 % 1014,6 hPa 0,0 l/m N 0,00 h 0 W/m 2,1 km/h (1 Bft)
16.06.2011 02:00 15,9 C 93 % 1014,4 hPa 0,0 l/m N-NO 0,00 h 0 W/m 1,2 km/h (1 Bft)
16.06.2011 03:00 15,5 C 95 % 1014,1 hPa 0,0 l/m N 0,00 h 0 W/m 0,3 km/h (0 Bft)
16.06.2011 04:00 14,9 C 96 % 1013,9 hPa 0,0 l/m N 0,00 h 0 W/m 0,5 km/h (0 Bft)
16.06.2011 05:00 14,5 C 97 % 1013,8 hPa 0,0 l/m N 0,00 h 13 W/m 0,7 km/h (0 Bft)
16.06.2011 06:00 14,6 C 97 % 1014,0 hPa 0,0 l/m N 0,17 h 60 W/m 0,9 km/h (0 Bft)
16.06.2011 07:00 16,3 C 94 % 1013,9 hPa 0,0 l/m S-SO 0,50 h 165 W/m 2,4 km/h (1 Bft)
16.06.2011 08:00 18,8 C 84 % 1013,7 hPa 0,0 l/m S-SW 0,83 h 314 W/m 7,6 km/h (2 Bft)
16.06.2011 09:00 20,8 C 70 % 1013,6 hPa 0,0 l/m W-SW 1,00 h 573 W/m 12,1 km/h (2 Bft)
16.06.2011 10:00 22,3 C 65 % 1013,3 hPa 0,0 l/m SW 0,92 h 695 W/m 13,8 km/h (3 Bft)
16.06.2011 11:00 23,7 C 56 % 1012,9 hPa 0,0 l/m SW 0,92 h 819 W/m 18,4 km/h (3 Bft)
16.06.2011 12:00 24,5 C 51 % 1012,5 hPa 0,0 l/m S-SW 0,92 h 842 W/m 18,0 km/h (3 Bft)
16.06.2011 13:00 25,1 C 48 % 1011,6 hPa 0,0 l/m SW 0,75 h 767 W/m 15,6 km/h (3 Bft)
16.06.2011 14:00 25,5 C 47 % 1010,7 hPa 0,0 l/m S-SW 0,83 h 771 W/m 16,4 km/h (3 Bft)
16.06.2011 15:00 25,2 C 52 % 1009,9 hPa 0,0 l/m SW 0,33 h 489 W/m 13,4 km/h (3 Bft)
16.06.2011 16:00 25,6 C 50 % 1009,4 hPa 0,0 l/m SW 0,92 h 568 W/m 15,4 km/h (3 Bft)
16.06.2011 17:00 24,6 C 54 % 1008,9 hPa 0,0 l/m SW 0,00 h 161 W/m 9,1 km/h (2 Bft)
16.06.2011 18:00 20,5 C 71 % 1009,6 hPa 0,0 l/m N-NW 0,00 h 60 W/m 22,6 km/h (4 Bft)
16.06.2011 19:00 17,2 C 84 % 1011,8 hPa 0,4 l/m W-NW 0,00 h 43 W/m 20,1 km/h (4 Bft)
16.06.2011 20:00 15,6 C 92 % 1013,3 hPa 0,4 l/m W-NW 0,00 h 10 W/m 5,2 km/h (1 Bft)
16.06.2011 21:00 15,0 C 94 % 1013,7 hPa 1,4 l/m N 0,00 h 0 W/m 3,6 km/h (1 Bft)
16.06.2011 22:00 15,0 C 96 % 1013,9 hPa 0,0 l/m SW 0,00 h 0 W/m 4,1 km/h (1 Bft)
16.06.2011 23:00 15,0 C 96 % 1014,5 hPa 0,0 l/m SW 0,00 h 0 W/m 7,4 km/h (2 Bft)
17.06.2011 00:00 14,6 C 95 % 1015,0 hPa 0,0 l/m SW 0,00 h 0 W/m 12,9 km/h (3 Bft)
17.06.2011 01:00 13,9 C 94 % 1015,4 hPa 0,0 l/m W-SW 0,00 h 0 W/m 13,7 km/h (3 Bft)
17.06.2011 02:00 13,5 C 92 % 1015,4 hPa 0,0 l/m W-SW 0,00 h 0 W/m 12,4 km/h (3 Bft)
17.06.2011 03:00 13,3 C 92 % 1015,3 hPa 0,0 l/m W-SW 0,00 h 0 W/m 6,8 km/h (2 Bft)
17.06.2011 04:00 13,3 C 94 % 1015,3 hPa 0,0 l/m SW 0,00 h 0 W/m 4,7 km/h (1 Bft)
17.06.2011 05:00 13,2 C 95 % 1015,2 hPa 0,0 l/m SW 0,00 h 7 W/m 3,2 km/h (1 Bft)
17.06.2011 06:00 13,6 C 94 % 1015,1 hPa 0,0 l/m W-SW 0,00 h 24 W/m 5,5 km/h (1 Bft)
17.06.2011 07:00 14,5 C 91 % 1015,0 hPa 0,0 l/m SW 0,33 h 162 W/m 3,7 km/h (1 Bft)
17.06.2011 08:00 15,6 C 85 % 1014,7 hPa 0,0 l/m W 0,33 h 234 W/m 7,4 km/h (2 Bft)
17.06.2011 09:00 16,8 C 76 % 1014,3 hPa 0,0 l/m W-SW 0,50 h 338 W/m 2,9 km/h (1 Bft)
17.06.2011 10:00 18,2 C 71 % 1013,8 hPa 0,0 l/m SO 0,50 h 510 W/m 7,8 km/h (2 Bft)
17.06.2011 11:00 19,5 C 62 % 1013,4 hPa 0,0 l/m SO 0,67 h 657 W/m 11,6 km/h (2 Bft)
17.06.2011 12:00 20,7 C 58 % 1012,6 hPa 0,0 l/m O 0,50 h 578 W/m 10,6 km/h (2 Bft)
17.06.2011 13:00 21,6 C 55 % 1011,7 hPa 0,0 l/m SO 0,67 h 726 W/m 11,9 km/h (2 Bft)
17.06.2011 14:00 22,5 C 54 % 1010,9 hPa 0,0 l/m O-SO 0,83 h 686 W/m 11,8 km/h (2 Bft)
17.06.2011 15:00 23,0 C 52 % 1009,9 hPa 0,0 l/m O-SO 0,92 h 677 W/m 10,2 km/h (2 Bft)
17.06.2011 16:00 23,6 C 51 % 1008,9 hPa 0,0 l/m O-SO 1,00 h 611 W/m 12,5 km/h (3 Bft)
17.06.2011 17:00 24,0 C 50 % 1007,9 hPa 0,0 l/m O-SO 0,75 h 505 W/m 15,6 km/h (3 Bft)
17.06.2011 18:00 22,4 C 58 % 1007,0 hPa 0,0 l/m O-SO 0,00 h 68 W/m 9,8 km/h (2 Bft)
17.06.2011 19:00 21,0 C 67 % 1006,8 hPa 0,0 l/m O-SO 0,00 h 33 W/m 4,8 km/h (1 Bft)
17.06.2011 20:00 18,7 C 85 % 1007,0 hPa 0,2 l/m W-SW 0,00 h 16 W/m 1,7 km/h (1 Bft)
17.06.2011 21:00 16,9 C 91 % 1007,6 hPa 2,2 l/m W-SW 0,00 h 0 W/m 12,6 km/h (3 Bft)
17.06.2011 22:00 16,0 C 96 % 1007,5 hPa 4,6 l/m SW 0,00 h 0 W/m 9,5 km/h (2 Bft)
17.06.2011 23:00 15,9 C 97 % 1006,9 hPa 0,4 l/m S-SW 0,00 h 0 W/m 12,8 km/h (3 Bft)
18.06.2011 00:00 15,7 C 98 % 1006,5 hPa 0,8 l/m SW 0,00 h 0 W/m 13,4 km/h (3 Bft)
18.06.2011 01:00 14,7 C 97 % 1007,5 hPa 7,8 l/m NW 0,00 h 0 W/m 17,7 km/h (3 Bft)
18.06.2011 02:00 13,5 C 97 % 1007,7 hPa 0,8 l/m O-SO 0,00 h 0 W/m 4,9 km/h (1 Bft)
18.06.2011 03:00 13,3 C 98 % 1007,4 hPa 0,2 l/m SW 0,00 h 0 W/m 9,4 km/h (2 Bft)
18.06.2011 04:00 13,6 C 98 % 1007,4 hPa 0,2 l/m S-SW 0,00 h 0 W/m 10,3 km/h (2 Bft)
18.06.2011 05:00 14,4 C 99 % 1007,1 hPa 0,0 l/m SW 0,00 h 6 W/m 15,6 km/h (3 Bft)
18.06.2011 06:00 14,3 C 98 % 1006,6 hPa 0,2 l/m SW 0,00 h 25 W/m 17,2 km/h (3 Bft)
18.06.2011 07:00 14,5 C 98 % 1006,6 hPa 0,0 l/m SW 0,00 h 62 W/m 15,4 km/h (3 Bft)
18.06.2011 08:00 15,0 C 96 % 1006,4 hPa 0,0 l/m SW 0,00 h 78 W/m 15,7 km/h (3 Bft)
18.06.2011 09:00 15,4 C 92 % 1006,4 hPa 0,0 l/m W-SW 0,00 h 117 W/m 18,0 km/h (3 Bft)
18.06.2011 10:00 14,8 C 91 % 1006,6 hPa 0,0 l/m W 0,00 h 92 W/m 16,1 km/h (3 Bft)
18.06.2011 11:00 13,2 C 91 % 1007,5 hPa 0,8 l/m W-SW 0,00 h 67 W/m 16,5 km/h (3 Bft)
18.06.2011 12:00 11,9 C 92 % 1008,1 hPa 0,6 l/m W-SW 0,00 h 60 W/m 18,2 km/h (3 Bft)
18.06.2011 13:00 11,2 C 93 % 1009,0 hPa 2,0 l/m SW 0,00 h 46 W/m 19,7 km/h (3 Bft)
18.06.2011 14:00 10,5 C 95 % 1009,3 hPa 2,0 l/m SW 0,00 h 46 W/m 19,2 km/h (3 Bft)
18.06.2011 15:00 10,4 C 97 % 1009,7 hPa 0,0 l/m S-SW 0,00 h 91 W/m 21,0 km/h (4 Bft)
18.06.2011 16:00 11,2 C 95 % 1010,0 hPa 0,0 l/m SW 0,00 h 213 W/m 21,8 km/h (4 Bft)
18.06.2011 17:00 12,2 C 90 % 1009,8 hPa 0,0 l/m SW 0,25 h 324 W/m 22,0 km/h (4 Bft)
18.06.2011 18:00 13,2 C 87 % 1009,3 hPa 0,0 l/m S-SW 0,42 h 248 W/m 23,3 km/h (4 Bft)
18.06.2011 19:00 13,3 C 87 % 1009,5 hPa 0,0 l/m SW 0,83 h 220 W/m 17,2 km/h (3 Bft)
18.06.2011 20:00 12,5 C 90 % 1009,7 hPa 0,0 l/m SW 0,17 h 39 W/m 11,6 km/h (2 Bft)
18.06.2011 21:00 11,7 C 92 % 1010,2 hPa 1,0 l/m W-SW 0,00 h 0 W/m 14,5 km/h (3 Bft)
18.06.2011 22:00 10,2 C 94 % 1010,8 hPa 0,2 l/m W-SW 0,00 h 0 W/m 10,1 km/h (2 Bft)
18.06.2011 23:00 10,0 C 96 % 1011,4 hPa 0,0 l/m SW 0,00 h 0 W/m 12,1 km/h (2 Bft)
19.06.2011 00:00 10,5 C 95 % 1012,0 hPa 0,0 l/m W-NW 0,00 h 0 W/m 5,5 km/h (1 Bft)
19.06.2011 01:00 9,6 C 97 % 1011,7 hPa 0,0 l/m SW 0,00 h 0 W/m 8,2 km/h (2 Bft)
19.06.2011 02:00 9,0 C 97 % 1011,9 hPa 0,0 l/m SW 0,00 h 0 W/m 11,2 km/h (2 Bft)
19.06.2011 03:00 8,8 C 97 % 1012,2 hPa 0,0 l/m W-SW 0,00 h 0 W/m 11,4 km/h (2 Bft)
19.06.2011 04:00 9,0 C 96 % 1012,1 hPa 0,0 l/m SW 0,00 h 0 W/m 7,4 km/h (2 Bft)
19.06.2011 05:00 9,4 C 96 % 1012,2 hPa 0,0 l/m SW 0,00 h 9 W/m 9,5 km/h (2 Bft)
19.06.2011 06:00 9,5 C 94 % 1011,9 hPa 0,0 l/m W-SW 0,08 h 40 W/m 12,2 km/h (2 Bft)
19.06.2011 07:00 10,4 C 91 % 1012,3 hPa 0,0 l/m W-SW 0,00 h 86 W/m 18,9 km/h (3 Bft)
19.06.2011 08:00 11,4 C 86 % 1012,7 hPa 0,0 l/m W-SW 0,00 h 122 W/m 19,0 km/h (3 Bft)
19.06.2011 09:00 12,2 C 80 % 1013,0 hPa 0,0 l/m W 0,08 h 261 W/m 28,3 km/h (4 Bft)
19.06.2011 10:00 13,6 C 69 % 1013,2 hPa 0,0 l/m W 0,25 h 389 W/m 31,8 km/h (5 Bft)
19.06.2011 11:00 12,1 C 73 % 1014,2 hPa 0,0 l/m W-NW 0,00 h 227 W/m 32,2 km/h (5 Bft)
19.06.2011 12:00 13,3 C 70 % 1014,6 hPa 0,0 l/m W 0,50 h 678 W/m 26,7 km/h (4 Bft)
19.06.2011 13:00 15,0 C 60 % 1014,6 hPa 0,0 l/m W 0,50 h 695 W/m 34,5 km/h (5 Bft)
19.06.2011 14:00 14,9 C 65 % 1014,7 hPa 0,0 l/m W 0,50 h 610 W/m 23,2 km/h (4 Bft)
19.06.2011 15:00 15,4 C 59 % 1014,8 hPa 0,0 l/m W-NW 0,42 h 568 W/m 32,1 km/h (5 Bft)
19.06.2011 16:00 16,2 C 55 % 1014,9 hPa 0,0 l/m W 0,58 h 571 W/m 31,0 km/h (5 Bft)
19.06.2011 17:00 15,7 C 54 % 1015,0 hPa 0,0 l/m W-SW 0,00 h 133 W/m 29,4 km/h (5 Bft)
19.06.2011 18:00 15,3 C 58 % 1015,4 hPa 0,0 l/m W 0,33 h 205 W/m 20,1 km/h (4 Bft)
19.06.2011 19:00 14,5 C 61 % 1015,9 hPa 0,0 l/m W-NW 0,00 h 78 W/m 15,3 km/h (3 Bft)
19.06.2011 20:00 13,6 C 65 % 1016,2 hPa 0,0 l/m W 0,00 h 26 W/m 10,2 km/h (2 Bft)
19.06.2011 21:00 12,5 C 70 % 1016,9 hPa 0,0 l/m W-SW 0,00 h 8 W/m 5,5 km/h (1 Bft)
19.06.2011 22:00 11,7 C 72 % 1017,7 hPa 0,0 l/m W-SW 0,00 h 0 W/m 7,1 km/h (2 Bft)
19.06.2011 23:00 11,5 C 73 % 1017,8 hPa 0,0 l/m SW 0,00 h 0 W/m 8,3 km/h (2 Bft)
Min-Datum _ 19.06.11 16.06.11 18.06.11 - - - - 13.06.11
_ Min-Zeit 03:05 14:10 09:00 - - - - 00:00
Minimum _ 8,3 C 44 % 1006,2 hPa - - - - 0,0 km/h (0 Bft)
Max-Datum _ 16.06.11 14.06.11 14.06.11 18.06.11 - 13.06.11 13.06.11 19.06.11
_ Max-Zeit 16:05 01:25 09:30 01:30 - 13:35 13:55 11:25
Maximum _ 26,3 C 100 % 1018,2 hPa 7,8 l/m - 0,08 h 1236 W/m 51,5 km/h
W-NW (7 Bft)
Durchschnitt _ 15,9 C 83 % 1013,7 hPa #32,2 l/m SW #33:00 h 273 W/m 9,6 km/h (2 Bft)